createdAt,value
2019-04-07T00:01:48.464Z,7.24
2019-04-07T00:06:57.632Z,7.23
2019-04-07T00:12:07.209Z,8.17
2019-04-07T00:17:16.090Z,7.56
2019-04-07T00:22:25.381Z,6.83
2019-04-07T00:27:34.239Z,7.30
2019-04-07T00:32:43.131Z,7.89
2019-04-07T00:37:52.120Z,7.97
2019-04-07T00:43:00.830Z,7.69
2019-04-07T00:48:09.056Z,7.14
2019-04-07T00:53:17.828Z,7.23
2019-04-07T00:58:27.124Z,7.39
2019-04-07T01:03:35.054Z,8.47
2019-04-07T01:08:43.944Z,9.16
2019-04-07T01:13:52.821Z,8.40
2019-04-07T01:19:04.625Z,8.53
2019-04-07T01:24:02.621Z,9.40
2019-04-07T01:29:11.445Z,10.89
2019-04-07T01:34:20.669Z,9.79
2019-04-07T01:39:28.642Z,9.08
2019-04-07T01:44:37.522Z,10.24
2019-04-07T01:49:46.607Z,10.06
2019-04-07T01:54:55.922Z,10.87
2019-04-07T02:00:03.646Z,9.73
2019-04-07T02:05:12.497Z,9.73
2019-04-07T02:10:21.351Z,10.06
2019-04-07T02:15:30.247Z,9.25
2019-04-07T02:20:39.055Z,10.07
2019-04-07T02:25:48.073Z,9.23
2019-04-07T02:30:57.327Z,9.71
2019-04-07T02:36:15.604Z,9.89
2019-04-07T02:41:13.588Z,10.31
2019-04-07T02:46:22.451Z,9.92
2019-04-07T02:51:31.943Z,9.81
2019-04-07T02:56:40.996Z,9.56
2019-04-07T03:01:49.484Z,10.45
2019-04-07T03:06:57.095Z,9.67
2019-04-07T03:12:07.165Z,9.94
2019-04-07T03:17:14.364Z,10.01
2019-04-07T03:22:23.767Z,9.10
2019-04-07T03:27:31.621Z,9.62
2019-04-07T03:32:42.909Z,9.97
2019-04-07T03:37:49.052Z,10.03
2019-04-07T03:42:57.419Z,10.09
2019-04-07T03:48:07.048Z,9.98
2019-04-07T03:53:15.775Z,11.33
2019-04-07T03:58:23.143Z,11.48
2019-04-07T04:03:32.225Z,11.35
2019-04-07T04:08:41.784Z,10.97
2019-04-07T04:13:50.902Z,12.22
2019-04-07T04:18:58.765Z,11.28
2019-04-07T04:24:08.288Z,11.76
2019-04-07T04:29:15.723Z,12.09
2019-04-07T04:34:25.111Z,12.07
2019-04-07T04:39:33.527Z,13.80
2019-04-07T04:44:42.138Z,13.05
2019-04-07T04:49:50.976Z,12.43
2019-04-07T04:55:00.549Z,13.03
2019-04-07T05:00:08.859Z,12.62
2019-04-07T05:05:18.194Z,12.96
2019-04-07T05:10:26.578Z,13.45
2019-04-07T05:15:35.108Z,14.49
2019-04-07T05:20:42.907Z,14.61
2019-04-07T05:25:55.708Z,15.93
2019-04-07T05:30:54.270Z,15.40
2019-04-07T05:36:02.066Z,14.22
2019-04-07T05:41:11.791Z,13.18
2019-04-07T05:46:20.175Z,13.34
2019-04-07T05:51:30.106Z,14.29
2019-04-07T05:56:37.012Z,14.04
2019-04-07T06:01:46.665Z,13.74
2019-04-07T06:06:56.199Z,14.36
2019-04-07T06:12:05.952Z,14.01
2019-04-07T06:17:12.044Z,13.25
2019-04-07T06:22:20.767Z,13.81
2019-04-07T06:27:29.773Z,14.47
2019-04-07T06:32:37.880Z,15.46
2019-04-07T06:37:45.519Z,13.76
2019-04-07T06:42:54.536Z,15.02
2019-04-07T06:48:07.461Z,14.60
2019-04-07T06:53:17.034Z,14.81
2019-04-07T06:58:20.848Z,15.33
2019-04-07T07:03:33.648Z,18.13
2019-04-07T07:08:45.980Z,16.88
2019-04-07T07:13:42.942Z,18.04
2019-04-07T07:18:53.638Z,16.79
2019-04-07T07:23:58.938Z,16.79
2019-04-07T07:29:06.794Z,18.23
2019-04-07T07:34:16.340Z,17.99
2019-04-07T07:39:24.090Z,20.39
2019-04-07T07:44:35.869Z,17.81
2019-04-07T07:49:42.304Z,18.49
2019-04-07T07:54:49.784Z,18.00
2019-04-07T07:59:58.670Z,17.77
2019-04-07T08:05:08.096Z,19.18
2019-04-07T08:10:16.918Z,20.93
2019-04-07T08:15:26.244Z,20.74
2019-04-07T08:20:31.749Z,20.06
2019-04-07T08:25:40.782Z,21.29
2019-04-07T08:30:49.081Z,21.70
2019-04-07T08:35:57.751Z,21.70
2019-04-07T08:41:08.182Z,20.71
2019-04-07T08:46:14.174Z,21.28
2019-04-07T08:51:23.069Z,20.38
2019-04-07T08:56:32.002Z,22.73
2019-04-07T09:01:40.502Z,23.35
2019-04-07T09:06:49.346Z,26.23
2019-04-07T09:11:58.285Z,25.00
2019-04-07T09:17:07.209Z,25.04
2019-04-07T09:22:15.423Z,26.68
2019-04-07T09:27:24.425Z,27.58
2019-04-07T09:32:31.855Z,30.56
2019-04-07T09:37:41.639Z,29.04
2019-04-07T09:42:49.606Z,30.34
2019-04-07T09:47:59.964Z,32.28
2019-04-07T09:53:07.923Z,31.87
2019-04-07T09:58:23.773Z,32.82
2019-04-07T10:03:21.927Z,32.36
2019-04-07T10:08:37.378Z,31.65
2019-04-07T10:13:35.119Z,34.61
2019-04-07T10:18:46.451Z,35.66
2019-04-07T10:23:45.632Z,32.16
2019-04-07T10:28:53.140Z,36.87
2019-04-07T10:34:01.823Z,35.02
2019-04-07T10:39:09.598Z,32.50
2019-04-07T10:44:19.370Z,36.51
2019-04-07T10:49:28.006Z,36.41
2019-04-07T10:54:37.139Z,36.48
2019-04-07T10:59:46.472Z,36.13
2019-04-07T11:04:55.066Z,38.29
2019-04-07T11:10:03.644Z,38.25
2019-04-07T11:15:11.313Z,43.08
2019-04-07T11:20:21.434Z,37.39
2019-04-07T11:25:29.529Z,41.99
2019-04-07T11:30:37.697Z,39.51
2019-04-07T11:35:47.534Z,37.46
2019-04-07T11:40:55.606Z,40.57
2019-04-07T11:46:05.690Z,40.09
2019-04-07T11:51:14.051Z,39.63
2019-04-07T11:56:22.826Z,39.86
2019-04-07T12:01:31.479Z,40.02
2019-04-07T12:06:40.456Z,40.58
2019-04-07T12:11:49.418Z,42.33
2019-04-07T12:16:59.372Z,42.08
2019-04-07T12:22:10.114Z,41.28
2019-04-07T12:27:16.115Z,44.57
2019-04-07T12:32:24.873Z,44.00
2019-04-07T12:37:35.040Z,44.59
2019-04-07T12:42:41.722Z,49.01
2019-04-07T12:47:49.718Z,47.34
2019-04-07T12:53:02.157Z,44.17
2019-04-07T12:58:10.757Z,47.61
2019-04-07T13:03:15.651Z,49.59
2019-04-07T13:08:24.568Z,45.37
2019-04-07T13:13:33.883Z,44.58
2019-04-07T13:18:40.515Z,47.19
2019-04-07T13:23:49.310Z,57.94
2019-04-07T13:28:58.697Z,44.33
2019-04-07T13:34:06.907Z,46.09
2019-04-07T13:39:15.896Z,47.64
2019-04-07T13:44:24.854Z,45.58
2019-04-07T13:49:34.159Z,44.96
2019-04-07T13:54:42.281Z,45.74
2019-04-07T13:59:51.095Z,47.16
2019-04-07T14:05:00.935Z,48.06
2019-04-07T14:10:09.080Z,47.19
2019-04-07T14:15:16.963Z,47.49
2019-04-07T14:20:25.828Z,49.57
2019-04-07T14:25:35.600Z,52.21
2019-04-07T14:30:43.420Z,49.86
2019-04-07T14:35:52.284Z,58.40
2019-04-07T14:41:01.249Z,57.56
2019-04-07T14:46:10.498Z,52.48
2019-04-07T14:51:19.656Z,53.73
2019-04-07T14:56:28.488Z,51.97
2019-04-07T15:01:37.862Z,52.92
2019-04-07T15:06:45.969Z,53.73
2019-04-07T15:11:56.400Z,54.46
2019-04-07T15:17:04.716Z,56.15
2019-04-07T15:22:13.234Z,56.92
2019-04-07T15:27:24.374Z,57.14
2019-04-07T15:32:30.085Z,56.57
2019-04-07T15:37:39.794Z,59.10
2019-04-07T15:42:49.997Z,61.80
2019-04-07T15:47:55.250Z,60.35
2019-04-07T15:53:03.351Z,63.91
2019-04-07T15:58:13.537Z,66.67
2019-04-07T16:03:15.078Z,66.17
2019-04-07T16:08:27.881Z,68.92
2019-04-07T16:13:23.879Z,70.39
2019-04-07T16:18:31.921Z,68.51
2019-04-07T16:23:40.683Z,68.88
2019-04-07T16:28:49.696Z,70.46
2019-04-07T16:33:59.200Z,67.54
2019-04-07T16:39:09.304Z,68.48
2019-04-07T16:44:16.961Z,70.26
2019-04-07T16:49:24.766Z,70.47
2019-04-07T16:54:33.960Z,67.99
2019-04-07T16:59:43.514Z,69.74
2019-04-07T17:04:54.708Z,69.42
2019-04-07T17:09:54.950Z,68.86
2019-04-07T17:15:04.568Z,68.24
2019-04-07T17:20:14.621Z,65.58
2019-04-07T17:25:12.476Z,70.14
2019-04-07T17:30:24.371Z,69.09
2019-04-07T17:35:31.138Z,66.21
2019-04-07T17:40:38.582Z,66.79
2019-04-07T17:45:52.057Z,67.06
2019-04-07T17:50:50.899Z,64.03
2019-04-07T17:55:50.608Z,61.62
2019-04-07T18:00:58.558Z,62.64
2019-04-07T18:06:11.184Z,62.37
2019-04-07T18:11:09.777Z,63.50
2019-04-07T18:16:17.490Z,67.17
2019-04-07T18:21:26.652Z,60.52
2019-04-07T18:26:38.738Z,66.52
2019-04-07T18:31:44.295Z,63.56
2019-04-07T18:36:53.176Z,59.98
2019-04-07T18:42:03.517Z,61.54
2019-04-07T18:47:10.832Z,62.51
2019-04-07T18:52:22.747Z,62.34
2019-04-07T18:57:30.515Z,61.99
2019-04-07T19:02:38.447Z,62.34
2019-04-07T19:07:48.663Z,63.53
2019-04-07T19:13:05.055Z,62.12
2019-04-07T19:18:04.872Z,60.05
2019-04-07T19:23:12.953Z,60.90
2019-04-07T19:28:23.075Z,59.85
2019-04-07T19:33:30.808Z,63.52
2019-04-07T19:38:39.884Z,59.69
2019-04-07T19:43:48.706Z,61.79
2019-04-07T19:48:57.631Z,61.88
2019-04-07T19:54:06.719Z,59.30
2019-04-07T19:59:15.457Z,59.14
2019-04-07T20:04:24.827Z,64.18
2019-04-07T20:09:33.008Z,59.60
2019-04-07T20:14:49.954Z,59.79
2019-04-07T20:19:51.320Z,65.30
2019-04-07T20:25:01.354Z,63.21
2019-04-07T20:30:03.695Z,62.25
2019-04-07T20:35:03.291Z,72.65
2019-04-07T20:40:11.468Z,67.40
2019-04-07T20:45:22.496Z,70.72
2019-04-07T20:50:29.264Z,64.10
2019-04-07T20:55:39.547Z,58.91
2019-04-07T21:00:55.021Z,54.64
2019-04-07T21:05:55.991Z,58.24
2019-04-07T21:11:05.635Z,58.48
2019-04-07T21:16:11.675Z,54.24
2019-04-07T21:21:22.008Z,55.66
2019-04-07T21:26:30.839Z,56.44
2019-04-07T21:31:37.744Z,55.33
2019-04-07T21:36:46.725Z,56.90
2019-04-07T21:41:56.288Z,54.13
2019-04-07T21:47:05.176Z,50.98
2019-04-07T21:52:18.403Z,52.51
2019-04-07T21:57:23.464Z,55.62
2019-04-07T22:02:31.328Z,51.80
2019-04-07T22:07:38.209Z,50.80
2019-04-07T22:12:47.781Z,51.24
2019-04-07T22:17:56.276Z,49.90
2019-04-07T22:23:06.265Z,50.18
2019-04-07T22:28:13.765Z,53.51
2019-04-07T22:33:25.227Z,53.68
2019-04-07T22:38:31.468Z,64.76
2019-04-07T22:43:39.241Z,50.86
2019-04-07T22:48:48.080Z,52.19
2019-04-07T22:53:57.786Z,49.59
2019-04-07T22:59:06.021Z,50.97
2019-04-07T23:04:12.487Z,52.09
2019-04-07T23:09:21.868Z,50.12
2019-04-07T23:14:29.898Z,50.81
2019-04-07T23:19:39.857Z,49.57
2019-04-07T23:24:47.503Z,49.76
2019-04-07T23:29:56.989Z,50.23
2019-04-07T23:35:06.004Z,51.99
2019-04-07T23:40:14.077Z,48.18
2019-04-07T23:45:23.127Z,50.08
2019-04-07T23:50:31.794Z,51.54
2019-04-07T23:55:31.453Z,52.50
